Terminal Aerodrome Forecast
Issued by NWS Kansas City/Pleasant Hill, MO

Home | Current Version | Previous Version | Text Only | Print | Product List | Glossary On
Versions: 1 2 3 4 5 6 7 8 9 10 11 12 13 14 15 16 17
000
FTUS43 KEAX 291700
TAFMCI
TAF
KMCI 291728Z 2918/3018 21013KT 6SM -RA OVC060
     FM292200 22010KT P6SM BKN050
     FM300400 31012KT P6SM VCTS BKN025CB
     FM300900 33012KT P6SM OVC008=

USA.gov is the U.S. government's official web portal to all federal, state and local government web resources and services.